Time;durP1;ratioP1;P1;durP2;ratioP2;P2;SDS_P1;SDS_P2;PMS_P1;PMS_P2;Temp;Humidity;BMP_temperature;BMP_pressure;BME280_temperature;BME280_humidity;BME280_pressure;Samples;Min_cycle;Max_cycle;Signal;HPM_P1;HPM_P2
2023/03/02 00:00:33;;;;;;;13.63;8.90;;;;;;;;;;4977037;28;20417;-73
2023/03/02 00:03:00;;;;;;;13.00;8.43;;;;;;;;;;4983515;28;20058;-73
2023/03/02 00:05:28;;;;;;;14.20;9.27;;;;;;;;;;4977002;28;20182;-73
2023/03/02 00:07:55;;;;;;;12.07;8.55;;;;;;;;;;4980305;28;20065;-74
2023/03/02 00:10:24;;;;;;;12.00;8.27;;;;;;;;;;4977095;28;20390;-73
2023/03/02 00:12:51;;;;;;;10.35;7.50;;;;;;;;;;4992365;28;20473;-73
2023/03/02 00:15:19;;;;;;;10.05;7.25;;;;;;;;;;4989074;28;20061;-73
2023/03/02 00:17:46;;;;;;;11.30;7.70;;;;;;;;;;4994753;28;20054;-74
2023/03/02 00:20:13;;;;;;;12.75;8.65;;;;;;;;;;4988847;28;20056;-73
2023/03/02 00:22:42;;;;;;;14.57;8.52;;;;;;;;;;4990582;28;20069;-74
2023/03/02 00:25:10;;;;;;;10.57;7.35;;;;;;;;;;4994461;28;20065;-73
2023/03/02 00:27:39;;;;;;;9.02;6.40;;;;;;;;;;4976893;28;20054;-74
2023/03/02 00:30:07;;;;;;;9.70;5.72;;;;;;;;;;4989772;28;20050;-73
2023/03/02 00:32:34;;;;;;;9.07;5.20;;;;;;;;;;4995592;28;20561;-73
2023/03/02 00:35:01;;;;;;;8.77;4.80;;;;;;;;;;4978070;28;20093;-73
2023/03/02 00:37:29;;;;;;;6.53;4.47;;;;;;;;;;4993583;28;20521;-73
2023/03/02 00:39:56;;;;;;;6.47;4.05;;;;;;;;;;4976762;28;20112;-73
2023/03/02 00:42:23;;;;;;;9.20;4.35;;;;;;;;;;4985451;28;20049;-73
2023/03/02 00:44:53;;;;;;;7.60;4.63;;;;;;;;;;4977306;28;20050;-73
2023/03/02 00:47:21;;;;;;;7.40;4.55;;;;;;;;;;4995514;28;20057;-73
2023/03/02 00:49:48;;;;;;;12.52;5.03;;;;;;;;;;4978925;28;20042;-73
2023/03/02 00:52:16;;;;;;;10.63;4.72;;;;;;;;;;4977538;28;20058;-73
2023/03/02 00:54:43;;;;;;;6.30;4.68;;;;;;;;;;4981926;28;20063;-73
2023/03/02 00:57:10;;;;;;;10.95;4.68;;;;;;;;;;4994954;28;20069;-73
2023/03/02 00:59:38;;;;;;;8.85;4.50;;;;;;;;;;4992555;28;20061;-73
2023/03/02 01:02:07;;;;;;;12.00;5.68;;;;;;;;;;4977264;28;20054;-73
2023/03/02 01:04:36;;;;;;;9.32;5.30;;;;;;;;;;4968451;28;20066;-73
2023/03/02 01:07:04;;;;;;;9.63;6.25;;;;;;;;;;4976620;28;20046;-73
2023/03/02 01:09:32;;;;;;;8.82;5.53;;;;;;;;;;4985752;28;20050;-73
2023/03/02 01:11:59;;;;;;;9.95;6.03;;;;;;;;;;4997952;28;20046;-73
2023/03/02 01:14:27;;;;;;;7.70;5.60;;;;;;;;;;4989223;28;20066;-73
2023/03/02 01:16:54;;;;;;;10.80;5.25;;;;;;;;;;4972024;28;20058;-73
2023/03/02 01:19:23;;;;;;;9.15;5.55;;;;;;;;;;4986189;28;20071;-73
2023/03/02 01:21:50;;;;;;;8.65;5.65;;;;;;;;;;4975230;28;20511;-73
2023/03/02 01:24:17;;;;;;;11.45;5.80;;;;;;;;;;4986807;28;20073;-73
2023/03/02 01:26:44;;;;;;;11.25;6.68;;;;;;;;;;4975292;28;20069;-74
2023/03/02 01:29:12;;;;;;;10.93;7.22;;;;;;;;;;4985320;28;20062;-73
2023/03/02 01:31:39;;;;;;;9.15;5.97;;;;;;;;;;4976468;28;20050;-73
2023/03/02 01:34:06;;;;;;;11.25;5.35;;;;;;;;;;4975448;28;20046;-73
2023/03/02 01:36:35;;;;;;;13.50;5.78;;;;;;;;;;4978279;28;20141;-73
2023/03/02 01:39:02;;;;;;;10.38;5.60;;;;;;;;;;4996034;28;20442;-73
2023/03/02 01:41:30;;;;;;;10.02;6.07;;;;;;;;;;4981296;28;20073;-73
2023/03/02 01:43:57;;;;;;;10.32;6.20;;;;;;;;;;4995952;28;20050;-73
2023/03/02 01:46:26;;;;;;;12.02;6.15;;;;;;;;;;4980317;28;20061;-73
2023/03/02 01:48:55;;;;;;;11.07;6.15;;;;;;;;;;5000072;28;20050;-74
2023/03/02 01:51:24;;;;;;;13.35;6.72;;;;;;;;;;4964703;28;20039;-73
2023/03/02 01:53:53;;;;;;;15.70;7.60;;;;;;;;;;4976511;28;20519;-73
2023/03/02 01:56:22;;;;;;;13.18;7.13;;;;;;;;;;4988492;28;20525;-73
2023/03/02 01:58:52;;;;;;;12.60;7.47;;;;;;;;;;4994426;28;20077;-73
2023/03/02 02:01:19;;;;;;;11.52;7.30;;;;;;;;;;4976896;28;20049;-73
2023/03/02 02:03:48;;;;;;;13.35;7.18;;;;;;;;;;4978080;28;20054;-74
2023/03/02 02:06:18;;;;;;;14.15;8.25;;;;;;;;;;4981605;28;20057;-73
2023/03/02 02:08:46;;;;;;;13.65;7.20;;;;;;;;;;4974844;28;20512;-73
2023/03/02 02:11:15;;;;;;;12.60;7.72;;;;;;;;;;4997892;28;20394;-73
2023/03/02 02:13:42;;;;;;;9.75;7.60;;;;;;;;;;4990373;28;20129;-73
2023/03/02 02:16:10;;;;;;;10.45;6.95;;;;;;;;;;4977119;28;20053;-74
2023/03/02 02:18:39;;;;;;;10.90;7.07;;;;;;;;;;4994051;28;20042;-73
2023/03/02 02:21:06;;;;;;;15.65;7.35;;;;;;;;;;4976600;28;20050;-73
2023/03/02 02:23:36;;;;;;;11.95;7.35;;;;;;;;;;4994616;28;20053;-73
2023/03/02 02:26:10;;;;;;;9.82;7.13;;;;;;;;;;4972447;28;20388;-73
2023/03/02 02:28:39;;;;;;;12.77;6.90;;;;;;;;;;4979479;28;20069;-73
2023/03/02 02:31:09;;;;;;;11.02;6.88;;;;;;;;;;4990784;28;20048;-73
2023/03/02 02:33:38;;;;;;;12.13;7.20;;;;;;;;;;4996556;28;20058;-73
2023/03/02 02:36:08;;;;;;;11.77;6.50;;;;;;;;;;4995227;28;20054;-74
2023/03/02 02:38:35;;;;;;;11.43;6.75;;;;;;;;;;4983997;28;20057;-73
2023/03/02 02:41:04;;;;;;;13.40;6.63;;;;;;;;;;4993783;28;20050;-73
2023/03/02 02:43:33;;;;;;;13.40;7.30;;;;;;;;;;4971379;28;20058;-73
2023/03/02 02:46:01;;;;;;;12.85;6.68;;;;;;;;;;4987046;28;20056;-73
2023/03/02 02:48:30;;;;;;;12.18;6.40;;;;;;;;;;4979966;28;20054;-73
2023/03/02 02:51:00;;;;;;;10.13;7.05;;;;;;;;;;4984343;28;20121;-73
2023/03/02 02:53:29;;;;;;;9.23;6.78;;;;;;;;;;4985088;28;20058;-73
2023/03/02 02:55:58;;;;;;;12.98;6.80;;;;;;;;;;4991076;28;20125;-72
2023/03/02 02:58:29;;;;;;;12.07;7.13;;;;;;;;;;4996640;28;20083;-73
2023/03/02 03:00:57;;;;;;;11.45;6.90;;;;;;;;;;4974071;28;20511;-73
2023/03/02 03:03:29;;;;;;;13.10;7.40;;;;;;;;;;4984830;28;20437;-73
2023/03/02 03:05:57;;;;;;;11.93;7.60;;;;;;;;;;4975615;28;20085;-73
2023/03/02 03:08:44;;;;;;;15.52;7.93;;;;;;;;;;4975441;28;20061;-73
2023/03/02 03:11:12;;;;;;;14.18;8.57;;;;;;;;;;5000212;28;20052;-73
2023/03/02 03:13:40;;;;;;;13.88;9.18;;;;;;;;;;4990701;28;20050;-73
2023/03/02 03:16:12;;;;;;;14.73;9.07;;;;;;;;;;4998000;28;20494;-73
2023/03/02 03:18:39;;;;;;;18.58;10.45;;;;;;;;;;4974457;28;20046;-73
2023/03/02 03:21:06;;;;;;;14.07;9.07;;;;;;;;;;4991976;28;20050;-73
2023/03/02 03:23:37;;;;;;;15.55;9.65;;;;;;;;;;4982712;28;20050;-74
2023/03/02 03:26:04;;;;;;;14.10;9.88;;;;;;;;;;4981534;28;20061;-73
2023/03/02 03:28:32;;;;;;;19.80;11.95;;;;;;;;;;4984805;28;20089;-74
2023/03/02 03:30:59;;;;;;;18.05;11.98;;;;;;;;;;4996944;28;20078;-73
2023/03/02 03:33:28;;;;;;;20.05;12.48;;;;;;;;;;4983378;28;20069;-73
2023/03/02 03:35:55;;;;;;;19.50;12.68;;;;;;;;;;4978393;28;20521;-74
2023/03/02 03:38:22;;;;;;;23.08;12.55;;;;;;;;;;4977649;28;20863;-73
2023/03/02 03:40:49;;;;;;;24.38;14.55;;;;;;;;;;4994192;28;20387;-73
2023/03/02 03:43:17;;;;;;;21.90;13.27;;;;;;;;;;4977839;28;20393;-73
2023/03/02 03:45:44;;;;;;;22.98;14.88;;;;;;;;;;4980372;28;20055;-73
2023/03/02 03:48:11;;;;;;;22.67;14.02;;;;;;;;;;4979763;28;20114;-73
2023/03/02 03:50:40;;;;;;;23.60;15.23;;;;;;;;;;4994685;28;20054;-73
2023/03/02 03:53:07;;;;;;;24.42;15.00;;;;;;;;;;4973147;28;20053;-73
2023/03/02 03:55:34;;;;;;;26.10;16.48;;;;;;;;;;4982534;28;20127;-73
2023/03/02 03:58:02;;;;;;;24.48;15.52;;;;;;;;;;4976720;28;20156;-73
2023/03/02 04:00:29;;;;;;;25.00;16.27;;;;;;;;;;5001361;28;20133;-73
2023/03/02 04:02:56;;;;;;;24.30;15.52;;;;;;;;;;4981509;28;20093;-73
2023/03/02 04:05:24;;;;;;;28.42;18.15;;;;;;;;;;4996462;28;20062;-73
2023/03/02 04:07:53;;;;;;;29.98;17.48;;;;;;;;;;4997968;28;20128;-73
2023/03/02 04:10:20;;;;;;;25.30;16.83;;;;;;;;;;4975860;28;20050;-73
2023/03/02 04:12:47;;;;;;;28.05;17.10;;;;;;;;;;4990318;28;20043;-73
2023/03/02 04:15:16;;;;;;;25.88;16.67;;;;;;;;;;4979278;28;20138;-73
2023/03/02 04:17:43;;;;;;;29.33;17.55;;;;;;;;;;4983699;28;20073;-73
2023/03/02 04:20:15;;;;;;;28.27;17.90;;;;;;;;;;4979973;28;20050;-73
2023/03/02 04:22:43;;;;;;;25.85;16.90;;;;;;;;;;4975815;28;20062;-73
2023/03/02 04:25:12;;;;;;;25.73;17.42;;;;;;;;;;4974353;28;20057;-73
2023/03/02 04:27:39;;;;;;;29.35;17.05;;;;;;;;;;4977863;28;20073;-73
2023/03/02 04:30:08;;;;;;;29.13;18.02;;;;;;;;;;4976118;28;20061;-73
2023/03/02 04:32:35;;;;;;;26.77;17.65;;;;;;;;;;4997787;28;20054;-73
2023/03/02 04:35:02;;;;;;;30.15;17.95;;;;;;;;;;4975466;28;20084;-73
2023/03/02 04:37:30;;;;;;;30.75;18.23;;;;;;;;;;4994949;28;20065;-73
2023/03/02 04:39:57;;;;;;;30.70;18.10;;;;;;;;;;4976554;28;21102;-73
2023/03/02 04:42:26;;;;;;;28.10;17.67;;;;;;;;;;4983787;28;20051;-73
2023/03/02 04:44:53;;;;;;;26.00;17.25;;;;;;;;;;4971653;28;20151;-73
2023/03/02 04:47:20;;;;;;;26.67;17.15;;;;;;;;;;4989774;28;20054;-73
2023/03/02 04:49:53;;;;;;;29.70;17.58;;;;;;;;;;4982148;28;20054;-73
2023/03/02 04:52:20;;;;;;;29.73;18.25;;;;;;;;;;5003116;28;20402;-73
2023/03/02 04:54:48;;;;;;;33.63;19.33;;;;;;;;;;4981432;28;20054;-72
2023/03/02 04:57:15;;;;;;;38.15;21.92;;;;;;;;;;4983134;28;20050;-73
2023/03/02 04:59:44;;;;;;;41.35;23.08;;;;;;;;;;4975825;28;20268;-73
2023/03/02 05:02:11;;;;;;;35.30;20.92;;;;;;;;;;4993459;28;20046;-73
2023/03/02 05:04:40;;;;;;;34.88;21.02;;;;;;;;;;4989257;28;20062;-73
2023/03/02 05:07:08;;;;;;;33.10;19.65;;;;;;;;;;4983041;28;20096;-73
2023/03/02 05:09:35;;;;;;;33.08;20.02;;;;;;;;;;4980621;28;20125;-73
2023/03/02 05:12:03;;;;;;;33.25;20.58;;;;;;;;;;4993557;28;20046;-73
2023/03/02 05:14:31;;;;;;;34.45;21.35;;;;;;;;;;4977414;28;20058;-73
2023/03/02 05:16:59;;;;;;;34.05;20.85;;;;;;;;;;4990085;28;20087;-73
2023/03/02 05:19:27;;;;;;;36.97;21.25;;;;;;;;;;4976516;28;20054;-73
2023/03/02 05:21:55;;;;;;;36.78;20.83;;;;;;;;;;4974803;28;20485;-73
2023/03/02 05:24:22;;;;;;;39.13;21.85;;;;;;;;;;4985798;28;20042;-73
2023/03/02 05:26:51;;;;;;;34.28;20.95;;;;;;;;;;4982691;28;20376;-73
2023/03/02 05:29:18;;;;;;;39.88;22.73;;;;;;;;;;4965646;28;20062;-74
2023/03/02 05:31:46;;;;;;;43.72;25.48;;;;;;;;;;4971090;28;20037;-73
2023/03/02 05:34:16;;;;;;;47.28;25.38;;;;;;;;;;4990964;28;20505;-73
2023/03/02 05:36:44;;;;;;;46.50;26.63;;;;;;;;;;4984288;28;20058;-73
2023/03/02 05:39:11;;;;;;;49.03;27.25;;;;;;;;;;4984974;28;20046;-73
2023/03/02 05:41:39;;;;;;;46.67;25.88;;;;;;;;;;4983768;28;20051;-73
2023/03/02 05:44:10;;;;;;;50.63;28.40;;;;;;;;;;4961931;28;20061;-73
2023/03/02 05:46:38;;;;;;;47.97;26.85;;;;;;;;;;4978243;28;20056;-73
2023/03/02 05:49:05;;;;;;;58.08;29.98;;;;;;;;;;4969011;28;20404;-73
2023/03/02 05:51:34;;;;;;;66.55;31.40;;;;;;;;;;4996351;28;20054;-73
2023/03/02 05:54:01;;;;;;;70.40;31.88;;;;;;;;;;4975403;28;20167;-72
2023/03/02 05:56:28;;;;;;;58.45;31.75;;;;;;;;;;4988825;28;20045;-73
2023/03/02 05:58:56;;;;;;;63.63;32.55;;;;;;;;;;4964567;28;20157;-72
2023/03/02 06:01:23;;;;;;;66.43;32.45;;;;;;;;;;4969349;28;20050;-72
2023/03/02 06:03:50;;;;;;;66.68;33.28;;;;;;;;;;4969467;28;20069;-73
2023/03/02 06:06:18;;;;;;;69.15;35.00;;;;;;;;;;4966634;28;20054;-73
2023/03/02 06:08:46;;;;;;;76.47;36.10;;;;;;;;;;4986760;28;20045;-73
2023/03/02 06:11:14;;;;;;;86.60;37.78;;;;;;;;;;4970660;28;20054;-73
2023/03/02 06:13:41;;;;;;;83.45;36.92;;;;;;;;;;4988285;28;20516;-73
2023/03/02 06:16:08;;;;;;;86.88;36.15;;;;;;;;;;4972569;28;20138;-73
2023/03/02 06:18:36;;;;;;;85.80;37.38;;;;;;;;;;4991987;28;20046;-73
2023/03/02 06:21:03;;;;;;;81.40;36.05;;;;;;;;;;4988100;28;20050;-73
2023/03/02 06:23:31;;;;;;;83.15;36.45;;;;;;;;;;4991458;28;20042;-73
2023/03/02 06:26:00;;;;;;;79.43;35.22;;;;;;;;;;4989177;28;20042;-72
2023/03/02 06:28:27;;;;;;;86.00;36.88;;;;;;;;;;4977373;28;20068;-72
2023/03/02 06:30:54;;;;;;;80.97;36.13;;;;;;;;;;4976259;28;20050;-73
2023/03/02 06:33:22;;;;;;;79.88;35.13;;;;;;;;;;4979597;28;20043;-72
2023/03/02 06:35:49;;;;;;;71.97;31.88;;;;;;;;;;4993977;28;20046;-72
2023/03/02 06:38:16;;;;;;;61.22;28.63;;;;;;;;;;4993548;28;20485;-73
2023/03/02 06:40:44;;;;;;;55.50;27.80;;;;;;;;;;4990613;28;20062;-74
2023/03/02 06:43:12;;;;;;;54.30;26.42;;;;;;;;;;4989644;28;20042;-73
2023/03/02 06:45:40;;;;;;;52.03;26.25;;;;;;;;;;4988482;28;20512;-72
2023/03/02 06:48:07;;;;;;;49.47;26.08;;;;;;;;;;4989677;28;20516;-73
2023/03/02 06:50:35;;;;;;;49.63;26.17;;;;;;;;;;4975307;28;20064;-73
2023/03/02 06:53:02;;;;;;;45.45;24.98;;;;;;;;;;4977316;28;20544;-73
2023/03/02 06:55:29;;;;;;;50.53;25.67;;;;;;;;;;4991552;28;20050;-73
2023/03/02 06:57:57;;;;;;;50.00;24.27;;;;;;;;;;4972139;28;20053;-73
2023/03/02 07:00:27;;;;;;;45.22;23.35;;;;;;;;;;4988373;28;20054;-73
2023/03/02 07:02:54;;;;;;;52.67;26.45;;;;;;;;;;4967000;28;20137;-73
2023/03/02 07:05:23;;;;;;;44.97;23.67;;;;;;;;;;4968519;28;20092;-73
2023/03/02 07:07:50;;;;;;;44.83;23.90;;;;;;;;;;4970080;28;20386;-74
2023/03/02 07:10:17;;;;;;;47.42;24.40;;;;;;;;;;4983555;28;20171;-73
2023/03/02 07:12:45;;;;;;;42.20;23.05;;;;;;;;;;4984076;28;20069;-73
2023/03/02 07:15:13;;;;;;;43.78;23.48;;;;;;;;;;4984484;28;20042;-73
2023/03/02 07:17:42;;;;;;;47.67;24.60;;;;;;;;;;4986259;28;20429;-71
2023/03/02 07:20:10;;;;;;;43.20;23.50;;;;;;;;;;4971471;28;20229;-72
2023/03/02 07:22:38;;;;;;;42.22;23.42;;;;;;;;;;4974430;28;20061;-70
2023/03/02 07:25:05;;;;;;;47.35;24.83;;;;;;;;;;4988637;28;20476;-70
2023/03/02 07:27:33;;;;;;;46.28;24.65;;;;;;;;;;4980677;28;20061;-73
2023/03/02 07:30:00;;;;;;;45.00;24.02;;;;;;;;;;4970705;28;20050;-72
2023/03/02 07:32:28;;;;;;;42.35;23.25;;;;;;;;;;4970778;28;20062;-71
2023/03/02 07:34:56;;;;;;;46.72;23.98;;;;;;;;;;4976460;28;20053;-72
2023/03/02 07:37:24;;;;;;;45.88;24.92;;;;;;;;;;4988436;28;20522;-73
2023/03/02 07:39:51;;;;;;;46.38;24.23;;;;;;;;;;4971289;28;20069;-75
2023/03/02 07:42:18;;;;;;;46.67;24.35;;;;;;;;;;4996271;28;20153;-72
2023/03/02 07:44:46;;;;;;;47.83;24.95;;;;;;;;;;4990144;28;20520;-72
2023/03/02 07:47:13;;;;;;;49.33;24.33;;;;;;;;;;4974744;28;20136;-72
2023/03/02 07:49:40;;;;;;;44.95;23.58;;;;;;;;;;4975431;28;20050;-73
2023/03/02 07:52:09;;;;;;;45.35;24.73;;;;;;;;;;4988063;28;20079;-73
2023/03/02 07:54:36;;;;;;;50.75;24.60;;;;;;;;;;4972044;28;20050;-71
2023/03/02 07:57:04;;;;;;;51.30;25.45;;;;;;;;;;4973064;28;20063;-71
2023/03/02 07:59:31;;;;;;;51.42;23.73;;;;;;;;;;4989316;28;20062;-72
2023/03/02 08:01:58;;;;;;;46.22;23.15;;;;;;;;;;4993091;28;20191;-71
2023/03/02 08:04:25;;;;;;;46.13;22.63;;;;;;;;;;4982569;28;20053;-73
2023/03/02 08:06:53;;;;;;;42.33;22.60;;;;;;;;;;4968792;28;20057;-73
2023/03/02 08:09:22;;;;;;;43.45;22.48;;;;;;;;;;4968003;28;20063;-73
2023/03/02 08:11:49;;;;;;;42.40;22.23;;;;;;;;;;4971808;28;20141;-73
2023/03/02 08:14:16;;;;;;;45.38;22.33;;;;;;;;;;4970401;28;20061;-75
2023/03/02 08:16:43;;;;;;;44.13;21.88;;;;;;;;;;4971183;28;20669;-72
2023/03/02 08:19:11;;;;;;;41.53;20.90;;;;;;;;;;4991859;28;20046;-72
2023/03/02 08:21:38;;;;;;;42.85;21.55;;;;;;;;;;4974265;28;20073;-72
2023/03/02 08:24:05;;;;;;;42.80;21.70;;;;;;;;;;4986342;28;20109;-73
2023/03/02 08:26:34;;;;;;;41.92;21.05;;;;;;;;;;4973495;28;20066;-72
2023/03/02 08:29:01;;;;;;;44.67;21.45;;;;;;;;;;4968427;28;20109;-74
2023/03/02 08:31:29;;;;;;;42.80;21.45;;;;;;;;;;4970217;28;20047;-73
2023/03/02 08:33:58;;;;;;;44.72;22.88;;;;;;;;;;4984424;28;20081;-73
2023/03/02 08:36:26;;;;;;;41.53;20.60;;;;;;;;;;4982573;28;20053;-74
2023/03/02 08:38:53;;;;;;;43.00;21.90;;;;;;;;;;4966529;28;20494;-76
2023/03/02 08:41:21;;;;;;;43.22;21.60;;;;;;;;;;4989018;28;20053;-73
2023/03/02 08:43:52;;;;;;;45.40;22.05;;;;;;;;;;4972962;28;20073;-72
2023/03/02 08:46:20;;;;;;;44.70;21.10;;;;;;;;;;4969163;28;20095;-73
2023/03/02 08:48:48;;;;;;;40.38;20.63;;;;;;;;;;4988044;28;20491;-74
2023/03/02 08:51:16;;;;;;;47.50;22.10;;;;;;;;;;4976779;28;20054;-72
2023/03/02 08:53:45;;;;;;;41.47;21.17;;;;;;;;;;4974550;28;20137;-72
2023/03/02 08:56:16;;;;;;;46.05;21.33;;;;;;;;;;4985601;28;20077;-72
2023/03/02 08:58:43;;;;;;;41.50;21.98;;;;;;;;;;4963537;28;20157;-73
2023/03/02 09:01:15;;;;;;;44.00;22.00;;;;;;;;;;4970570;28;20088;-73
2023/03/02 09:03:42;;;;;;;38.17;20.58;;;;;;;;;;4982599;28;20038;-72
2023/03/02 09:06:10;;;;;;;45.72;21.33;;;;;;;;;;4985539;28;20485;-73
2023/03/02 09:08:37;;;;;;;35.63;19.45;;;;;;;;;;4970609;28;20062;-72
2023/03/02 09:11:05;;;;;;;40.97;20.70;;;;;;;;;;4970965;28;20493;-73
2023/03/02 09:13:32;;;;;;;37.60;19.77;;;;;;;;;;4970915;28;20413;-73
2023/03/02 09:16:00;;;;;;;39.70;20.92;;;;;;;;;;4968807;28;20050;-73
2023/03/02 09:18:29;;;;;;;40.50;20.17;;;;;;;;;;4987450;28;20078;-71
2023/03/02 09:20:57;;;;;;;39.50;19.38;;;;;;;;;;4984094;28;20109;-72
2023/03/02 09:23:25;;;;;;;36.60;19.13;;;;;;;;;;4966704;28;20049;-73
2023/03/02 09:25:53;;;;;;;33.15;17.80;;;;;;;;;;4974447;28;20133;-69
2023/03/02 09:28:21;;;;;;;35.10;18.60;;;;;;;;;;4992150;28;20065;-67
2023/03/02 09:30:49;;;;;;;32.63;18.05;;;;;;;;;;4965480;28;20125;-68
2023/03/02 09:33:16;;;;;;;33.83;18.38;;;;;;;;;;4996507;28;20061;-68
2023/03/02 09:35:45;;;;;;;37.65;18.50;;;;;;;;;;4988549;28;20054;-68
2023/03/02 09:38:15;;;;;;;35.80;19.20;;;;;;;;;;4997200;28;20551;-68
2023/03/02 09:40:48;;;;;;;37.45;19.15;;;;;;;;;;4983692;28;20053;-68
2023/03/02 09:43:25;;;;;;;37.45;19.15;;;;;;;;;;4991506;28;20057;-68
2023/03/02 09:45:57;;;;;;;32.28;18.17;;;;;;;;;;4998641;28;20042;-68
2023/03/02 09:48:30;;;;;;;34.72;19.30;;;;;;;;;;4996090;28;20050;-68
2023/03/02 09:51:05;;;;;;;29.85;17.00;;;;;;;;;;4996697;28;20485;-68
2023/03/02 09:53:37;;;;;;;33.05;17.02;;;;;;;;;;4994008;28;20379;-68
2023/03/02 09:56:13;;;;;;;35.70;17.15;;;;;;;;;;4985417;28;20412;-68
2023/03/02 09:58:41;;;;;;;30.83;16.92;;;;;;;;;;4991559;28;20046;-68
2023/03/02 10:01:12;;;;;;;30.10;17.48;;;;;;;;;;4990591;28;20064;-68
2023/03/02 10:03:43;;;;;;;30.50;16.67;;;;;;;;;;4989017;28;20050;-69
2023/03/02 10:06:13;;;;;;;31.90;17.70;;;;;;;;;;4993095;28;20050;-68
2023/03/02 10:08:42;;;;;;;30.77;17.48;;;;;;;;;;4992416;28;20064;-68
2023/03/02 10:11:15;;;;;;;32.25;17.15;;;;;;;;;;4993620;28;20136;-68
2023/03/02 10:13:45;;;;;;;33.15;18.45;;;;;;;;;;4996327;28;20049;-68
2023/03/02 10:16:16;;;;;;;33.90;18.52;;;;;;;;;;4986952;28;20078;-68
2023/03/02 10:18:46;;;;;;;35.30;19.35;;;;;;;;;;4989775;28;20058;-68
2023/03/02 10:21:20;;;;;;;36.58;19.58;;;;;;;;;;4975391;28;20054;-68
2023/03/02 10:23:50;;;;;;;37.05;19.45;;;;;;;;;;4996038;28;20064;-68
2023/03/02 10:26:23;;;;;;;37.28;18.30;;;;;;;;;;4993387;28;20057;-68
2023/03/02 10:28:55;;;;;;;38.03;19.52;;;;;;;;;;4986750;28;20493;-69
2023/03/02 10:31:26;;;;;;;39.78;19.27;;;;;;;;;;4982518;28;20061;-68
2023/03/02 10:33:53;;;;;;;40.15;19.73;;;;;;;;;;4987499;28;20068;-68
2023/03/02 10:36:24;;;;;;;36.78;18.52;;;;;;;;;;4987488;28;20053;-68
2023/03/02 10:38:51;;;;;;;39.40;20.15;;;;;;;;;;4983881;28;20101;-69
2023/03/02 10:41:21;;;;;;;35.25;18.55;;;;;;;;;;4982773;28;20053;-68
2023/03/02 10:43:51;;;;;;;32.20;16.48;;;;;;;;;;4983097;28;20054;-69
2023/03/02 10:46:19;;;;;;;38.22;16.63;;;;;;;;;;4991380;28;20045;-69
2023/03/02 10:48:50;;;;;;;30.20;15.98;;;;;;;;;;4998050;28;20054;-69
2023/03/02 10:51:26;;;;;;;30.42;15.85;;;;;;;;;;4988987;28;20050;-69
2023/03/02 10:54:03;;;;;;;33.75;16.80;;;;;;;;;;4990267;28;20045;-69
2023/03/02 10:56:30;;;;;;;31.85;17.48;;;;;;;;;;4989941;28;20105;-69
2023/03/02 10:59:02;;;;;;;34.75;18.10;;;;;;;;;;4988977;28;20105;-69
2023/03/02 11:01:30;;;;;;;39.45;18.08;;;;;;;;;;4997687;28;20132;-68
2023/03/02 11:03:58;;;;;;;43.58;19.08;;;;;;;;;;4996746;28;20124;-71
2023/03/02 11:06:27;;;;;;;41.78;19.00;;;;;;;;;;4993802;28;20053;-71
2023/03/02 11:09:01;;;;;;;46.05;19.52;;;;;;;;;;4998051;28;20101;-70
2023/03/02 11:11:28;;;;;;;39.40;19.00;;;;;;;;;;4994814;28;20532;-70
2023/03/02 11:13:56;;;;;;;41.28;18.95;;;;;;;;;;4992472;28;20046;-72
2023/03/02 11:16:25;;;;;;;42.45;20.50;;;;;;;;;;4995079;28;20042;-71
2023/03/02 11:18:54;;;;;;;45.10;19.38;;;;;;;;;;4992252;28;20049;-70
2023/03/02 11:21:23;;;;;;;36.60;18.48;;;;;;;;;;4998428;28;20038;-70
2023/03/02 11:23:58;;;;;;;41.03;18.75;;;;;;;;;;4999625;28;20061;-71
2023/03/02 11:26:27;;;;;;;44.28;18.55;;;;;;;;;;4996361;28;20069;-70
2023/03/02 11:29:00;;;;;;;36.53;16.92;;;;;;;;;;4970219;28;20142;-72
2023/03/02 11:31:30;;;;;;;35.38;17.63;;;;;;;;;;4987225;28;20054;-70
2023/03/02 11:34:03;;;;;;;35.45;16.65;;;;;;;;;;4985491;28;20059;-71
2023/03/02 11:36:36;;;;;;;32.10;15.75;;;;;;;;;;4970390;28;20072;-71
2023/03/02 11:39:08;;;;;;;33.45;16.30;;;;;;;;;;4984286;28;20042;-71
2023/03/02 11:41:35;;;;;;;30.65;15.25;;;;;;;;;;4986005;28;20401;-70
2023/03/02 11:44:08;;;;;;;29.17;14.23;;;;;;;;;;4982895;28;20129;-70
2023/03/02 11:46:36;;;;;;;28.92;14.02;;;;;;;;;;4995257;28;20046;-71
2023/03/02 11:49:05;;;;;;;27.13;13.90;;;;;;;;;;5004473;28;20046;-71
2023/03/02 11:51:34;;;;;;;29.92;14.45;;;;;;;;;;4999498;28;20054;-70
2023/03/02 11:54:02;;;;;;;30.08;14.65;;;;;;;;;;4997815;28;20489;-71
2023/03/02 11:56:32;;;;;;;28.08;13.93;;;;;;;;;;4997280;28;20046;-71
2023/03/02 11:59:01;;;;;;;28.48;15.30;;;;;;;;;;4998802;28;20064;-71
2023/03/02 12:01:29;;;;;;;26.77;13.32;;;;;;;;;;4993588;28;20130;-71
2023/03/02 12:04:07;;;;;;;28.02;13.70;;;;;;;;;;4994563;28;20062;-71
2023/03/02 12:06:39;;;;;;;27.30;14.70;;;;;;;;;;4990202;28;20047;-71
2023/03/02 12:09:29;;;;;;;29.20;15.05;;;;;;;;;;4992555;28;20049;-71
2023/03/02 12:12:00;;;;;;;24.20;13.82;;;;;;;;;;4981916;28;20053;-71
2023/03/02 12:14:30;;;;;;;25.55;14.50;;;;;;;;;;4987657;28;20487;-71
2023/03/02 12:17:07;;;;;;;24.23;13.65;;;;;;;;;;4988624;28;20046;-71
2023/03/02 12:19:42;;;;;;;27.75;14.02;;;;;;;;;;4968670;28;20501;-71
2023/03/02 12:22:12;;;;;;;20.33;11.73;;;;;;;;;;4984761;28;20486;-71
2023/03/02 12:24:40;;;;;;;20.50;11.90;;;;;;;;;;4987301;28;20068;-71
2023/03/02 12:27:24;;;;;;;22.90;12.10;;;;;;;;;;4984232;28;20050;-71
2023/03/02 12:29:52;;;;;;;18.13;11.30;;;;;;;;;;4989814;28;20524;-71
2023/03/02 12:32:24;;;;;;;21.52;11.40;;;;;;;;;;4997596;28;20077;-71
2023/03/02 12:34:53;;;;;;;19.85;10.75;;;;;;;;;;4995994;28;20045;-71
2023/03/02 12:37:24;;;;;;;18.13;10.95;;;;;;;;;;4993957;28;20046;-71
2023/03/02 12:40:06;;;;;;;18.73;10.35;;;;;;;;;;4992264;28;20497;-71
2023/03/02 12:42:48;;;;;;;20.38;10.20;;;;;;;;;;4993568;28;20058;-71
2023/03/02 12:45:21;;;;;;;14.88;9.38;;;;;;;;;;4997337;28;20057;-71
2023/03/02 12:47:50;;;;;;;13.45;8.73;;;;;;;;;;4995729;28;20046;-71
2023/03/02 12:50:19;;;;;;;14.40;7.85;;;;;;;;;;4979730;28;20065;-71
2023/03/02 12:52:57;;;;;;;12.30;7.18;;;;;;;;;;4990715;28;20494;-71
2023/03/02 12:55:24;;;;;;;11.18;7.78;;;;;;;;;;4995619;28;20449;-71
2023/03/02 12:57:54;;;;;;;12.02;6.72;;;;;;;;;;4988341;28;20133;-71
2023/03/02 13:00:23;;;;;;;8.98;6.43;;;;;;;;;;4988211;28;20509;-71
2023/03/02 13:02:51;;;;;;;7.90;5.97;;;;;;;;;;4992367;28;20050;-71
2023/03/02 13:05:20;;;;;;;9.43;6.75;;;;;;;;;;4993506;28;20516;-71
2023/03/02 13:07:51;;;;;;;10.90;6.45;;;;;;;;;;4989417;28;20051;-71
2023/03/02 13:10:22;;;;;;;8.55;6.15;;;;;;;;;;4992761;28;20047;-71
2023/03/02 13:12:49;;;;;;;7.95;5.82;;;;;;;;;;4989827;28;20053;-71
2023/03/02 13:15:18;;;;;;;11.88;5.93;;;;;;;;;;4988455;28;20385;-71
2023/03/02 13:17:46;;;;;;;10.65;5.40;;;;;;;;;;4985721;28;20062;-70
2023/03/02 13:20:14;;;;;;;9.80;5.38;;;;;;;;;;4991194;28;20054;-71
2023/03/02 13:22:41;;;;;;;8.45;6.13;;;;;;;;;;4992058;28;20057;-71
2023/03/02 13:25:21;;;;;;;8.13;5.55;;;;;;;;;;4993450;28;20048;-70
2023/03/02 13:27:52;;;;;;;7.93;5.95;;;;;;;;;;4975977;28;20054;-71
2023/03/02 13:30:24;;;;;;;8.90;6.18;;;;;;;;;;4988432;28;20050;-71
2023/03/02 13:32:53;;;;;;;11.00;6.43;;;;;;;;;;4985879;28;20382;-71
2023/03/02 13:35:22;;;;;;;10.13;5.88;;;;;;;;;;4985560;28;20050;-71
2023/03/02 13:37:56;;;;;;;8.93;6.28;;;;;;;;;;4994007;28;20166;-71
2023/03/02 13:40:41;;;;;;;9.45;6.45;;;;;;;;;;4992058;28;20057;-71
2023/03/02 13:43:26;;;;;;;10.52;6.40;;;;;;;;;;4984681;28;20802;-71
2023/03/02 13:45:56;;;;;;;7.80;5.93;;;;;;;;;;4972811;28;20061;-70
2023/03/02 13:48:23;;;;;;;11.00;6.72;;;;;;;;;;4985299;28;20051;-71
2023/03/02 13:50:52;;;;;;;9.80;6.50;;;;;;;;;;4991547;28;20523;-70
2023/03/02 13:53:19;;;;;;;9.18;6.43;;;;;;;;;;4969653;28;20061;-70
2023/03/02 13:55:46;;;;;;;7.97;5.82;;;;;;;;;;4988368;28;20064;-70
2023/03/02 13:58:16;;;;;;;9.20;6.70;;;;;;;;;;4992916;28;20054;-70
2023/03/02 14:00:43;;;;;;;8.82;6.47;;;;;;;;;;4996740;28;20074;-70
2023/03/02 14:03:21;;;;;;;8.75;5.72;;;;;;;;;;4992469;28;20424;-70
2023/03/02 14:05:50;;;;;;;7.30;4.90;;;;;;;;;;4972695;28;20053;-70
2023/03/02 14:08:17;;;;;;;6.75;5.18;;;;;;;;;;4995557;28;20057;-70
2023/03/02 14:10:44;;;;;;;8.77;5.45;;;;;;;;;;5002596;28;20058;-70
2023/03/02 14:13:14;;;;;;;7.53;4.72;;;;;;;;;;4995395;28;20069;-71
2023/03/02 14:15:42;;;;;;;7.75;4.95;;;;;;;;;;4994387;28;20049;-70
2023/03/02 14:18:17;;;;;;;6.55;5.32;;;;;;;;;;4992601;28;20509;-71
2023/03/02 14:20:45;;;;;;;5.50;4.43;;;;;;;;;;4988455;28;20057;-70
2023/03/02 14:23:12;;;;;;;9.68;4.72;;;;;;;;;;4996168;28;20049;-70
2023/03/02 14:25:40;;;;;;;5.85;4.32;;;;;;;;;;4976197;28;20053;-70
2023/03/02 14:28:07;;;;;;;7.25;5.43;;;;;;;;;;4979717;28;20054;-70
2023/03/02 14:30:34;;;;;;;6.20;4.60;;;;;;;;;;4998642;28;20104;-70
2023/03/02 14:33:01;;;;;;;5.90;4.40;;;;;;;;;;4999507;28;20052;-70